Chattanooga Airport (CHA)

 

Airport Diagram
Current Weather/Forecast (MVFR Conditions)
METAR KCHA 241553Z 01004KT 10SM BKN020 BKN070 BKN250 28/22 A3007 RMK AO2 SLP175 T02780222 PNO $
TAF KCHA 241410Z 2414/2512 03004KT P6SM BKN025 BKN250 TEMPO 2414/2416 BKN015 FM241600 VRB03KT P6SM SCT030 BKN040 FM242000 VRB03KT P6SM VCTS BKN040CB FM250400 VRB03KT P6SM BKN050

All Charts
General
Chart Name Download
AIRPORT DIAGRAM
TAKEOFF MINIMUMS
ALTERNATE MINIMUMS

Departures
Chart Name Download
CHATTANOOGA SIX

Approaches
Chart Name Download
ILS OR LOC RWY 02
ILS OR LOC RWY 20
ILS RWY 20 (CAT II)
RNAV (GPS) RWY 02
RNAV (GPS) RWY 15
RNAV (GPS) RWY 20
RNAV (GPS) RWY 33
VOR RWY 33


Inbound Traffic (Arrivals)

No inbound traffic.


Outbound Traffic (Departures)

No outbound traffic.